createdAt,value
2017-08-31T00:00:08.350Z,24.54
2017-08-31T00:00:18.350Z,24.57
2017-08-31T00:00:28.370Z,24.63
2017-08-31T00:00:38.370Z,24.63
2017-08-31T00:00:48.410Z,24.54
2017-08-31T00:00:58.430Z,24.54
2017-08-31T00:01:08.411Z,24.52
2017-08-31T00:01:18.440Z,24.64
2017-08-31T00:01:28.450Z,24.57
2017-08-31T00:01:38.454Z,24.54
2017-08-31T00:01:48.480Z,24.57
2017-08-31T00:01:58.490Z,24.57
2017-08-31T00:02:08.509Z,24.64
2017-08-31T00:02:18.510Z,24.59
2017-08-31T00:02:28.530Z,24.54
2017-08-31T00:02:38.550Z,24.59
2017-08-31T00:02:48.560Z,24.54
2017-08-31T00:02:58.569Z,24.54
2017-08-31T00:03:08.590Z,24.56
2017-08-31T00:03:18.695Z,24.63
2017-08-31T00:03:28.620Z,24.63
2017-08-31T00:03:38.637Z,24.63
2017-08-31T00:03:48.660Z,24.6
2017-08-31T00:03:58.670Z,24.66
2017-08-31T00:04:08.687Z,24.66
2017-08-31T00:04:18.690Z,24.57
2017-08-31T00:04:28.730Z,24.67
2017-08-31T00:04:38.716Z,24.59
2017-08-31T00:04:48.730Z,24.53
2017-08-31T00:04:58.780Z,24.56
2017-08-31T00:05:08.760Z,24.64
2017-08-31T00:05:18.794Z,24.59
2017-08-31T00:05:28.790Z,24.64
2017-08-31T00:05:38.820Z,24.59
2017-08-31T00:05:48.810Z,24.62
2017-08-31T00:05:58.838Z,24.53
2017-08-31T00:06:08.877Z,24.62
2017-08-31T00:06:18.850Z,24.54
2017-08-31T00:06:28.880Z,24.63
2017-08-31T00:06:38.889Z,24.6
2017-08-31T00:06:48.895Z,24.54
2017-08-31T00:06:58.940Z,24.57
2017-08-31T00:07:08.940Z,24.59
2017-08-31T00:07:18.950Z,24.63
2017-08-31T00:07:28.949Z,24.63
2017-08-31T00:07:38.977Z,24.62
2017-08-31T00:07:49.000Z,24.59
2017-08-31T00:07:59.000Z,24.56
2017-08-31T00:08:09.040Z,24.62
2017-08-31T00:08:19.039Z,24.62
2017-08-31T00:08:29.030Z,24.59
2017-08-31T00:08:39.050Z,24.6
2017-08-31T00:08:49.070Z,24.62
2017-08-31T00:08:59.090Z,24.59
2017-08-31T00:09:09.123Z,24.6
2017-08-31T00:09:19.120Z,24.6
2017-08-31T00:09:29.140Z,24.56
2017-08-31T00:09:39.130Z,24.53
2017-08-31T00:09:49.151Z,24.57
2017-08-31T00:09:59.170Z,24.54
2017-08-31T00:10:09.180Z,24.6
2017-08-31T00:10:19.213Z,24.64
2017-08-31T00:10:29.220Z,24.62
2017-08-31T00:10:39.230Z,24.59
2017-08-31T00:10:49.238Z,24.59
2017-08-31T00:10:59.250Z,24.54
2017-08-31T00:11:09.270Z,24.54
2017-08-31T00:11:19.270Z,24.62
2017-08-31T00:11:29.290Z,24.54
2017-08-31T00:11:39.310Z,24.63
2017-08-31T00:11:49.321Z,24.56
2017-08-31T00:11:59.339Z,24.57
2017-08-31T00:12:09.356Z,24.56
2017-08-31T00:12:19.380Z,24.57
2017-08-31T00:12:29.370Z,24.6
2017-08-31T00:12:39.405Z,24.54
2017-08-31T00:12:49.419Z,24.54
2017-08-31T00:12:59.430Z,24.62
2017-08-31T00:13:09.430Z,24.6
2017-08-31T00:13:19.449Z,24.62
2017-08-31T00:13:29.463Z,24.6
2017-08-31T00:13:39.470Z,24.56
2017-08-31T00:13:49.510Z,24.59
2017-08-31T00:13:59.525Z,24.54
2017-08-31T00:14:09.520Z,24.63
2017-08-31T00:14:19.540Z,24.59
2017-08-31T00:14:29.560Z,24.59
2017-08-31T00:14:39.550Z,24.52
2017-08-31T00:14:49.570Z,24.53
2017-08-31T00:14:59.611Z,24.59
2017-08-31T00:15:09.621Z,24.6
2017-08-31T00:15:19.611Z,24.54
2017-08-31T00:15:29.661Z,24.54
2017-08-31T00:15:39.678Z,24.57
2017-08-31T00:15:49.671Z,24.63
2017-08-31T00:15:59.691Z,24.62
2017-08-31T00:16:09.693Z,24.62
2017-08-31T00:16:19.700Z,24.56
2017-08-31T00:16:29.722Z,24.53
2017-08-31T00:16:39.731Z,24.53
2017-08-31T00:16:49.741Z,24.57
2017-08-31T00:16:59.769Z,24.56
2017-08-31T00:17:09.781Z,24.54
2017-08-31T00:17:19.798Z,24.56
2017-08-31T00:17:29.799Z,24.62
2017-08-31T00:17:39.811Z,24.62
2017-08-31T00:17:49.838Z,24.59
2017-08-31T00:17:59.831Z,24.54
2017-08-31T00:18:09.851Z,24.63
2017-08-31T00:18:19.871Z,24.59
2017-08-31T00:18:29.863Z,24.57
2017-08-31T00:18:39.891Z,24.57
2017-08-31T00:18:49.921Z,24.6
2017-08-31T00:18:59.931Z,24.54
2017-08-31T00:19:09.948Z,24.53
2017-08-31T00:19:19.951Z,24.57
2017-08-31T00:19:29.971Z,24.59
2017-08-31T00:19:39.979Z,24.57
2017-08-31T00:19:49.981Z,24.5
2017-08-31T00:20:00.049Z,24.57
2017-08-31T00:20:10.031Z,24.6
2017-08-31T00:20:20.059Z,24.54
2017-08-31T00:20:30.051Z,24.53
2017-08-31T00:20:40.079Z,24.54
2017-08-31T00:20:50.071Z,24.56
2017-08-31T00:21:00.100Z,24.57
2017-08-31T00:21:10.101Z,24.62
2017-08-31T00:21:20.114Z,24.53
2017-08-31T00:21:30.135Z,24.53
2017-08-31T00:21:40.170Z,24.56
2017-08-31T00:21:50.151Z,24.59
2017-08-31T00:22:00.172Z,24.56
2017-08-31T00:22:10.195Z,24.57
2017-08-31T00:22:20.211Z,24.59
2017-08-31T00:22:30.211Z,24.53
2017-08-31T00:22:40.237Z,24.56
2017-08-31T00:22:50.361Z,24.53
2017-08-31T00:23:00.261Z,24.59
2017-08-31T00:23:10.291Z,24.52
2017-08-31T00:23:20.301Z,24.62
2017-08-31T00:23:30.319Z,24.52
2017-08-31T00:23:40.329Z,24.59
2017-08-31T00:23:50.333Z,24.56
2017-08-31T00:24:00.367Z,24.52
2017-08-31T00:24:10.347Z,24.52
2017-08-31T00:24:20.371Z,24.57
2017-08-31T00:24:30.401Z,24.56
2017-08-31T00:24:40.391Z,24.6
2017-08-31T00:24:50.411Z,24.54
2017-08-31T00:25:00.443Z,24.52
2017-08-31T00:25:10.432Z,24.52
2017-08-31T00:25:20.451Z,24.53
2017-08-31T00:25:30.471Z,24.57
2017-08-31T00:25:40.501Z,24.47
2017-08-31T00:25:50.498Z,24.5
2017-08-31T00:26:00.511Z,24.54
2017-08-31T00:26:10.541Z,24.5
2017-08-31T00:26:20.545Z,24.57
2017-08-31T00:26:30.562Z,24.5
2017-08-31T00:26:40.581Z,24.57
2017-08-31T00:26:50.569Z,24.52
2017-08-31T00:27:00.606Z,24.54
2017-08-31T00:27:10.612Z,24.56
2017-08-31T00:27:20.632Z,24.6
2017-08-31T00:27:30.639Z,24.53
2017-08-31T00:27:40.661Z,24.53
2017-08-31T00:27:50.671Z,24.52
2017-08-31T00:28:00.672Z,24.56
2017-08-31T00:28:10.702Z,24.52
2017-08-31T00:28:20.711Z,24.57
2017-08-31T00:28:30.711Z,24.57
2017-08-31T00:28:40.741Z,24.5
2017-08-31T00:28:50.769Z,24.59
2017-08-31T00:29:00.772Z,24.56
2017-08-31T00:29:10.781Z,24.54
2017-08-31T00:29:20.800Z,24.54
2017-08-31T00:29:30.825Z,24.53
2017-08-31T00:29:40.813Z,24.45
2017-08-31T00:29:50.854Z,24.57
2017-08-31T00:30:00.851Z,24.52
2017-08-31T00:30:10.891Z,24.52
2017-08-31T00:30:20.862Z,24.45
2017-08-31T00:30:30.891Z,24.53
2017-08-31T00:30:40.921Z,24.54
2017-08-31T00:30:50.921Z,24.5
2017-08-31T00:31:00.931Z,24.57
2017-08-31T00:31:10.951Z,24.44
2017-08-31T00:31:20.971Z,24.59
2017-08-31T00:31:30.991Z,24.52
2017-08-31T00:31:41.001Z,24.53
2017-08-31T00:31:50.991Z,24.48
2017-08-31T00:32:01.021Z,24.53
2017-08-31T00:32:11.061Z,24.5
2017-08-31T00:32:21.061Z,24.57
2017-08-31T00:32:31.060Z,24.47
2017-08-31T00:32:41.071Z,24.53
2017-08-31T00:32:51.101Z,24.48
2017-08-31T00:33:01.092Z,24.41
2017-08-31T00:33:11.121Z,24.53
2017-08-31T00:33:21.142Z,24.52
2017-08-31T00:33:31.141Z,24.52
2017-08-31T00:33:41.161Z,24.42
2017-08-31T00:33:51.171Z,24.45
2017-08-31T00:34:01.199Z,24.53
2017-08-31T00:34:11.193Z,24.47
2017-08-31T00:34:21.219Z,24.57
2017-08-31T00:34:31.241Z,24.47
2017-08-31T00:34:41.233Z,24.48
2017-08-31T00:34:51.251Z,24.57
2017-08-31T00:35:01.281Z,24.5
2017-08-31T00:35:11.292Z,24.52
2017-08-31T00:35:21.292Z,24.5
2017-08-31T00:35:31.319Z,24.52
2017-08-31T00:35:41.333Z,24.53
2017-08-31T00:35:51.332Z,24.52
2017-08-31T00:36:01.362Z,24.54
2017-08-31T00:36:11.372Z,24.47
2017-08-31T00:36:21.371Z,24.57
2017-08-31T00:36:31.397Z,24.53
2017-08-31T00:36:41.411Z,24.57
2017-08-31T00:36:51.429Z,24.54
2017-08-31T00:37:01.432Z,24.45
2017-08-31T00:37:11.482Z,24.57
2017-08-31T00:37:21.472Z,24.45
2017-08-31T00:37:31.472Z,24.48
2017-08-31T00:37:41.491Z,24.47
2017-08-31T00:37:51.521Z,24.45
2017-08-31T00:38:01.542Z,24.5
2017-08-31T00:38:11.539Z,24.56
2017-08-31T00:38:21.551Z,24.44
2017-08-31T00:38:31.578Z,24.56
2017-08-31T00:38:41.582Z,24.56
2017-08-31T00:38:51.598Z,24.48
2017-08-31T00:39:01.621Z,24.47
2017-08-31T00:39:11.621Z,24.48
2017-08-31T00:39:21.632Z,24.53
2017-08-31T00:39:31.662Z,24.47
2017-08-31T00:39:41.651Z,24.54
2017-08-31T00:39:51.710Z,24.48
2017-08-31T00:40:01.692Z,24.5
2017-08-31T00:40:11.721Z,24.48
2017-08-31T00:40:21.711Z,24.5
2017-08-31T00:40:31.742Z,24.53
2017-08-31T00:40:41.761Z,24.47
2017-08-31T00:40:51.763Z,24.48
2017-08-31T00:41:01.782Z,24.45
2017-08-31T00:41:11.805Z,24.45
2017-08-31T00:41:21.797Z,24.47
2017-08-31T00:41:31.813Z,24.5
2017-08-31T00:41:41.833Z,24.52
2017-08-31T00:41:51.842Z,24.44
2017-08-31T00:42:01.862Z,24.45
2017-08-31T00:42:11.872Z,24.45
2017-08-31T00:42:21.901Z,24.48
2017-08-31T00:42:31.892Z,24.47
2017-08-31T00:42:41.913Z,24.48
2017-08-31T00:42:51.942Z,24.54
2017-08-31T00:43:01.934Z,24.54
2017-08-31T00:43:11.952Z,24.42
2017-08-31T00:43:21.979Z,24.56
2017-08-31T00:43:31.996Z,24.48
2017-08-31T00:43:41.992Z,24.45
2017-08-31T00:43:52.013Z,24.53
2017-08-31T00:44:02.033Z,24.48
2017-08-31T00:44:12.032Z,24.54
2017-08-31T00:44:22.059Z,24.45
2017-08-31T00:44:32.083Z,24.5
2017-08-31T00:44:42.083Z,24.5
2017-08-31T00:44:52.120Z,24.44
2017-08-31T00:45:02.125Z,24.44
2017-08-31T00:45:12.134Z,24.5
2017-08-31T00:45:22.147Z,24.54
2017-08-31T00:45:32.172Z,24.48
2017-08-31T00:45:42.173Z,24.42
2017-08-31T00:45:52.172Z,24.54
2017-08-31T00:46:02.201Z,24.53
2017-08-31T00:46:12.214Z,24.48
2017-08-31T00:46:22.223Z,24.48
2017-08-31T00:46:32.232Z,24.47
2017-08-31T00:46:42.272Z,24.53
2017-08-31T00:46:52.271Z,24.44
2017-08-31T00:47:02.281Z,24.54
2017-08-31T00:47:12.292Z,24.47
2017-08-31T00:47:22.328Z,24.54
2017-08-31T00:47:32.313Z,24.54
2017-08-31T00:47:42.343Z,24.54
2017-08-31T00:47:52.363Z,24.47
2017-08-31T00:48:02.359Z,24.5
2017-08-31T00:48:12.373Z,24.53
2017-08-31T00:48:22.395Z,24.5
2017-08-31T00:48:32.412Z,24.52
2017-08-31T00:48:42.422Z,24.53
2017-08-31T00:48:52.447Z,24.5
2017-08-31T00:49:02.453Z,24.52
2017-08-31T00:49:12.463Z,24.5
2017-08-31T00:49:22.468Z,24.5
2017-08-31T00:49:32.502Z,24.5
2017-08-31T00:49:42.502Z,24.48
2017-08-31T00:49:52.522Z,24.48
2017-08-31T00:50:02.533Z,24.48
2017-08-31T00:50:12.562Z,24.5
2017-08-31T00:50:22.563Z,24.52
2017-08-31T00:50:32.573Z,24.42
2017-08-31T00:50:42.603Z,24.52
2017-08-31T00:50:52.593Z,24.45
2017-08-31T00:51:02.613Z,24.54
2017-08-31T00:51:12.633Z,24.45
2017-08-31T00:51:22.633Z,24.48
2017-08-31T00:51:32.652Z,24.5
2017-08-31T00:51:42.672Z,24.48
2017-08-31T00:51:52.683Z,24.52
2017-08-31T00:52:02.703Z,24.47
2017-08-31T00:52:12.713Z,24.52
2017-08-31T00:52:22.748Z,24.45
2017-08-31T00:52:32.751Z,24.47
2017-08-31T00:52:42.753Z,24.47
2017-08-31T00:52:52.778Z,24.41
2017-08-31T00:53:02.782Z,24.44
2017-08-31T00:53:12.793Z,24.5
2017-08-31T00:53:22.829Z,24.48
2017-08-31T00:53:32.832Z,24.52
2017-08-31T00:53:42.843Z,24.5
2017-08-31T00:53:52.857Z,24.52
2017-08-31T00:54:02.891Z,24.44
2017-08-31T00:54:12.873Z,24.48
2017-08-31T00:54:22.903Z,24.4
2017-08-31T00:54:32.922Z,24.52
2017-08-31T00:54:42.921Z,24.52
2017-08-31T00:54:52.953Z,24.47
2017-08-31T00:55:02.952Z,24.48
2017-08-31T00:55:12.972Z,24.54
2017-08-31T00:55:22.983Z,24.56
2017-08-31T00:55:32.999Z,24.45
2017-08-31T00:55:43.013Z,24.47
2017-08-31T00:55:53.019Z,24.5
2017-08-31T00:56:03.023Z,24.54
2017-08-31T00:56:13.053Z,24.45
2017-08-31T00:56:23.052Z,24.53
2017-08-31T00:56:33.093Z,24.54
2017-08-31T00:56:43.093Z,24.47
2017-08-31T00:56:53.117Z,24.44
2017-08-31T00:57:03.113Z,24.54
2017-08-31T00:57:13.132Z,24.53
2017-08-31T00:57:23.167Z,24.47
2017-08-31T00:57:33.152Z,24.44
2017-08-31T00:57:43.182Z,24.45
2017-08-31T00:57:53.202Z,24.44
2017-08-31T00:58:03.183Z,24.44
2017-08-31T00:58:13.232Z,24.44
2017-08-31T00:58:23.247Z,24.42
2017-08-31T00:58:33.273Z,24.41
2017-08-31T00:58:43.271Z,24.48
2017-08-31T00:58:53.273Z,24.47
2017-08-31T00:59:03.293Z,24.45
2017-08-31T00:59:13.313Z,24.48
2017-08-31T00:59:23.333Z,24.42
2017-08-31T00:59:33.332Z,24.45
2017-08-31T00:59:43.343Z,24.48
2017-08-31T00:59:53.353Z,24.5
2017-08-31T01:00:03.382Z,24.44
2017-08-31T01:00:13.403Z,24.47
2017-08-31T01:00:23.393Z,24.45
2017-08-31T01:00:33.423Z,24.45
2017-08-31T01:00:43.443Z,24.45
2017-08-31T01:00:53.423Z,24.45
2017-08-31T01:01:03.452Z,24.41
2017-08-31T01:01:13.505Z,24.45
2017-08-31T01:01:23.462Z,24.44
2017-08-31T01:01:33.502Z,24.56
2017-08-31T01:01:43.523Z,24.44
2017-08-31T01:01:53.533Z,24.45
2017-08-31T01:02:03.544Z,24.48
2017-08-31T01:02:13.577Z,24.5
2017-08-31T01:02:23.572Z,24.56
2017-08-31T01:02:33.580Z,24.56
2017-08-31T01:02:43.587Z,24.54
2017-08-31T01:02:53.608Z,24.54
2017-08-31T01:03:03.633Z,24.52
2017-08-31T01:03:13.633Z,24.44
2017-08-31T01:03:23.682Z,24.41
2017-08-31T01:03:33.682Z,24.44
2017-08-31T01:03:43.687Z,24.41
2017-08-31T01:03:53.694Z,24.45
2017-08-31T01:04:03.723Z,24.52
2017-08-31T01:04:13.723Z,24.48
2017-08-31T01:04:23.755Z,24.45
2017-08-31T01:04:33.753Z,24.45
2017-08-31T01:04:43.775Z,24.54
2017-08-31T01:04:53.773Z,24.52
2017-08-31T01:05:03.792Z,24.52
2017-08-31T01:05:13.823Z,24.44
2017-08-31T01:05:23.869Z,24.45
2017-08-31T01:05:33.828Z,24.44
2017-08-31T01:05:43.877Z,24.5
2017-08-31T01:05:53.862Z,24.5
2017-08-31T01:06:03.877Z,24.48
2017-08-31T01:06:13.894Z,24.45
2017-08-31T01:06:23.903Z,24.47
2017-08-31T01:06:33.913Z,24.5
2017-08-31T01:06:43.933Z,24.42
2017-08-31T01:06:53.963Z,24.47
2017-08-31T01:07:03.958Z,24.4
2017-08-31T01:07:13.983Z,24.44
2017-08-31T01:07:24.004Z,24.5
2017-08-31T01:07:34.004Z,24.47
2017-08-31T01:07:44.023Z,24.45
2017-08-31T01:07:54.033Z,24.45
2017-08-31T01:08:04.044Z,24.47
2017-08-31T01:08:14.053Z,24.48
2017-08-31T01:08:24.091Z,24.44
2017-08-31T01:08:34.103Z,24.47
2017-08-31T01:08:44.104Z,24.47
2017-08-31T01:08:54.134Z,24.44
2017-08-31T01:09:04.133Z,24.48
2017-08-31T01:09:14.159Z,24.44
2017-08-31T01:09:24.154Z,24.48
2017-08-31T01:09:34.173Z,24.4
2017-08-31T01:09:44.174Z,24.45
2017-08-31T01:09:54.213Z,24.45
2017-08-31T01:10:04.214Z,24.45
2017-08-31T01:10:14.243Z,24.45
2017-08-31T01:10:24.244Z,24.52
2017-08-31T01:10:34.253Z,24.45
2017-08-31T01:10:44.273Z,24.44
2017-08-31T01:10:54.284Z,24.48
2017-08-31T01:11:04.313Z,24.44
2017-08-31T01:11:14.326Z,24.48
2017-08-31T01:11:24.313Z,24.44
2017-08-31T01:11:34.344Z,24.41
2017-08-31T01:11:44.344Z,24.41
2017-08-31T01:11:54.360Z,24.42
2017-08-31T01:12:04.374Z,24.42
2017-08-31T01:12:14.413Z,24.42
2017-08-31T01:12:24.403Z,24.44
2017-08-31T01:12:34.423Z,24.44
2017-08-31T01:12:44.445Z,24.41
2017-08-31T01:12:54.463Z,24.41
2017-08-31T01:13:04.454Z,24.35
2017-08-31T01:13:14.474Z,24.48
2017-08-31T01:13:24.493Z,24.45
2017-08-31T01:13:34.517Z,24.47
2017-08-31T01:13:44.514Z,24.41
2017-08-31T01:13:54.533Z,24.41
2017-08-31T01:14:04.554Z,24.42
2017-08-31T01:14:14.554Z,24.44
2017-08-31T01:14:24.774Z,24.47
2017-08-31T01:14:34.593Z,24.41
2017-08-31T01:14:44.600Z,24.41
2017-08-31T01:14:54.623Z,24.45
2017-08-31T01:15:04.634Z,24.47
2017-08-31T01:15:14.654Z,24.44
2017-08-31T01:15:24.654Z,24.45
2017-08-31T01:15:34.689Z,24.42
2017-08-31T01:15:44.693Z,24.41
2017-08-31T01:15:54.695Z,24.48
2017-08-31T01:16:04.714Z,24.45
2017-08-31T01:16:14.737Z,24.4
2017-08-31T01:16:24.756Z,24.47
2017-08-31T01:16:34.774Z,24.42
2017-08-31T01:16:44.779Z,24.44
2017-08-31T01:16:54.798Z,24.4
2017-08-31T01:17:04.803Z,24.41
2017-08-31T01:17:14.814Z,24.41
2017-08-31T01:17:24.854Z,24.41
2017-08-31T01:17:34.841Z,24.45
2017-08-31T01:17:44.873Z,24.48
2017-08-31T01:17:54.884Z,24.47
2017-08-31T01:18:04.888Z,24.47
2017-08-31T01:18:14.894Z,24.42
2017-08-31T01:18:24.923Z,24.45
2017-08-31T01:18:34.933Z,24.44
2017-08-31T01:18:44.934Z,24.42
2017-08-31T01:18:54.943Z,24.45
2017-08-31T01:19:04.984Z,24.32
2017-08-31T01:19:14.974Z,24.34
2017-08-31T01:19:25.004Z,24.4
2017-08-31T01:19:35.023Z,24.41
2017-08-31T01:19:45.014Z,24.42
2017-08-31T01:19:55.057Z,24.44
2017-08-31T01:20:05.063Z,24.32
2017-08-31T01:20:15.063Z,24.41
2017-08-31T01:20:25.079Z,24.47
2017-08-31T01:20:35.103Z,24.44
2017-08-31T01:20:45.122Z,24.47
2017-08-31T01:20:55.123Z,24.45
2017-08-31T01:21:05.147Z,24.47
2017-08-31T01:21:15.154Z,24.45
2017-08-31T01:21:25.163Z,24.47
2017-08-31T01:21:35.178Z,24.34
2017-08-31T01:21:45.199Z,24.42
2017-08-31T01:21:55.214Z,24.47
2017-08-31T01:22:05.214Z,24.42
2017-08-31T01:22:15.249Z,24.42
2017-08-31T01:22:25.254Z,24.42
2017-08-31T01:22:35.253Z,24.42
2017-08-31T01:22:45.274Z,24.44
2017-08-31T01:22:55.288Z,24.5
2017-08-31T01:23:05.293Z,24.44
2017-08-31T01:23:15.314Z,24.48
2017-08-31T01:23:25.334Z,24.44
2017-08-31T01:23:35.390Z,24.42
2017-08-31T01:23:45.353Z,24.42
2017-08-31T01:23:55.373Z,24.42
2017-08-31T01:24:05.392Z,24.47
2017-08-31T01:24:15.411Z,24.42
2017-08-31T01:24:25.414Z,24.48
2017-08-31T01:24:35.435Z,24.45
2017-08-31T01:24:45.443Z,24.45
2017-08-31T01:24:55.456Z,24.48
2017-08-31T01:25:05.484Z,24.47
2017-08-31T01:25:15.493Z,24.41
2017-08-31T01:25:25.508Z,24.42
2017-08-31T01:25:35.519Z,24.42
2017-08-31T01:25:45.544Z,24.44
2017-08-31T01:25:55.544Z,24.45
2017-08-31T01:26:05.563Z,24.41
2017-08-31T01:26:15.583Z,24.4
2017-08-31T01:26:25.583Z,24.47
2017-08-31T01:26:35.597Z,24.34
2017-08-31T01:26:45.624Z,24.44
2017-08-31T01:26:55.624Z,24.47
2017-08-31T01:27:05.633Z,24.41
2017-08-31T01:27:15.681Z,24.48
2017-08-31T01:27:25.703Z,24.41
2017-08-31T01:27:35.673Z,24.52
2017-08-31T01:27:45.693Z,24.44
2017-08-31T01:27:55.723Z,24.34
2017-08-31T01:28:05.733Z,24.41
2017-08-31T01:28:15.739Z,24.45
2017-08-31T01:28:25.764Z,24.42
2017-08-31T01:28:35.774Z,24.48
2017-08-31T01:28:45.767Z,24.47
2017-08-31T01:28:55.816Z,24.42
2017-08-31T01:29:05.813Z,24.44
2017-08-31T01:29:15.833Z,24.47
2017-08-31T01:29:25.911Z,24.47
2017-08-31T01:29:35.859Z,24.35
2017-08-31T01:29:45.853Z,24.42
2017-08-31T01:29:55.874Z,24.42
2017-08-31T01:30:05.894Z,24.42
2017-08-31T01:30:15.918Z,24.47
2017-08-31T01:30:25.914Z,24.41
2017-08-31T01:30:35.965Z,24.45
2017-08-31T01:30:45.956Z,24.4
2017-08-31T01:30:55.944Z,24.41
2017-08-31T01:31:05.974Z,24.47
2017-08-31T01:31:15.995Z,24.44
2017-08-31T01:31:25.988Z,24.45
2017-08-31T01:31:36.014Z,24.44
2017-08-31T01:31:46.039Z,24.52
2017-08-31T01:31:56.048Z,24.42
2017-08-31T01:32:06.054Z,24.42
2017-08-31T01:32:16.064Z,24.48
2017-08-31T01:32:26.095Z,24.48
2017-08-31T01:32:36.105Z,24.47
2017-08-31T01:32:46.114Z,24.41
2017-08-31T01:32:56.134Z,24.44
2017-08-31T01:33:06.131Z,24.42
2017-08-31T01:33:16.164Z,24.42
2017-08-31T01:33:26.184Z,24.34
2017-08-31T01:33:36.208Z,24.44
2017-08-31T01:33:46.203Z,24.5
2017-08-31T01:33:56.224Z,24.45
2017-08-31T01:34:06.236Z,24.44
2017-08-31T01:34:16.224Z,24.45
2017-08-31T01:34:26.265Z,24.5
2017-08-31T01:34:36.273Z,24.47
2017-08-31T01:34:46.275Z,24.42
2017-08-31T01:34:56.294Z,24.47
2017-08-31T01:35:06.305Z,24.41
2017-08-31T01:35:16.335Z,24.47
2017-08-31T01:35:26.335Z,24.41
2017-08-31T01:35:36.354Z,24.47
2017-08-31T01:35:46.374Z,24.5
2017-08-31T01:35:56.375Z,24.41
2017-08-31T01:36:06.394Z,24.44
2017-08-31T01:36:16.418Z,24.47
2017-08-31T01:36:26.422Z,24.5
2017-08-31T01:36:36.435Z,24.42
2017-08-31T01:36:46.465Z,24.5
2017-08-31T01:36:56.454Z,24.42
2017-08-31T01:37:06.474Z,24.48
2017-08-31T01:37:16.494Z,24.42
2017-08-31T01:37:26.514Z,24.44
2017-08-31T01:37:36.514Z,24.48
2017-08-31T01:37:46.534Z,24.44
2017-08-31T01:37:56.576Z,24.42
2017-08-31T01:38:06.565Z,24.44
2017-08-31T01:38:16.583Z,24.47
2017-08-31T01:38:26.598Z,24.4
2017-08-31T01:38:36.622Z,24.48
2017-08-31T01:38:46.634Z,24.41
2017-08-31T01:38:56.635Z,24.47
2017-08-31T01:39:06.663Z,24.45
2017-08-31T01:39:16.654Z,24.4
2017-08-31T01:39:26.684Z,24.47
2017-08-31T01:39:36.694Z,24.41
2017-08-31T01:39:46.694Z,24.45
2017-08-31T01:39:56.733Z,24.45
2017-08-31T01:40:06.744Z,24.38
2017-08-31T01:40:16.765Z,24.41
2017-08-31T01:40:26.755Z,24.41
2017-08-31T01:40:36.785Z,24.4
2017-08-31T01:40:46.794Z,24.48
2017-08-31T01:40:56.794Z,24.47
2017-08-31T01:41:06.823Z,24.42
2017-08-31T01:41:16.844Z,24.44
2017-08-31T01:41:26.834Z,24.42
2017-08-31T01:41:36.875Z,24.44
2017-08-31T01:41:46.893Z,24.42
2017-08-31T01:41:56.887Z,24.48
2017-08-31T01:42:06.914Z,24.41
2017-08-31T01:42:16.924Z,24.44
2017-08-31T01:42:26.934Z,24.45
2017-08-31T01:42:36.952Z,24.42
2017-08-31T01:42:46.958Z,24.41
2017-08-31T01:42:56.985Z,24.44
2017-08-31T01:43:06.974Z,24.47
2017-08-31T01:43:16.984Z,24.41
2017-08-31T01:43:27.026Z,24.41
2017-08-31T01:43:37.042Z,24.41
2017-08-31T01:43:47.038Z,24.42
2017-08-31T01:43:57.054Z,24.42
2017-08-31T01:44:07.077Z,24.44
2017-08-31T01:44:17.074Z,24.4
2017-08-31T01:44:27.264Z,24.45
2017-08-31T01:44:37.114Z,24.45
2017-08-31T01:44:47.114Z,24.41
2017-08-31T01:44:57.134Z,24.48
2017-08-31T01:45:07.159Z,24.41
2017-08-31T01:45:17.171Z,24.4
2017-08-31T01:45:27.194Z,24.4
2017-08-31T01:45:37.195Z,24.47
2017-08-31T01:45:47.214Z,24.4
2017-08-31T01:45:57.210Z,24.45
2017-08-31T01:46:07.245Z,24.42
2017-08-31T01:46:17.254Z,24.44
2017-08-31T01:46:27.256Z,24.45
2017-08-31T01:46:37.296Z,24.41
2017-08-31T01:46:47.319Z,24.44
2017-08-31T01:46:57.304Z,24.47
2017-08-31T01:47:07.338Z,24.41
2017-08-31T01:47:17.334Z,24.41
2017-08-31T01:47:27.359Z,24.4
2017-08-31T01:47:37.364Z,24.4
2017-08-31T01:47:47.374Z,24.45
2017-08-31T01:47:57.395Z,24.47
2017-08-31T01:48:07.494Z,24.3
2017-08-31T01:48:17.424Z,24.44
2017-08-31T01:48:27.443Z,24.4
2017-08-31T01:48:37.424Z,24.47
2017-08-31T01:48:47.476Z,24.42
2017-08-31T01:48:57.475Z,24.4
2017-08-31T01:49:07.502Z,24.41
2017-08-31T01:49:17.495Z,24.44
2017-08-31T01:49:27.523Z,24.47
2017-08-31T01:49:37.539Z,24.41
2017-08-31T01:49:47.535Z,24.45
2017-08-31T01:49:57.554Z,24.45
2017-08-31T01:50:07.605Z,24.48
2017-08-31T01:50:17.605Z,24.44
2017-08-31T01:50:27.602Z,24.47
2017-08-31T01:50:37.614Z,24.47
2017-08-31T01:50:47.645Z,24.44
2017-08-31T01:50:57.635Z,24.41
2017-08-31T01:51:07.675Z,24.41
2017-08-31T01:51:17.674Z,24.45
2017-08-31T01:51:27.675Z,24.42
2017-08-31T01:51:37.695Z,24.42
2017-08-31T01:51:47.714Z,24.42
2017-08-31T01:51:57.725Z,24.42
2017-08-31T01:52:07.745Z,24.47
2017-08-31T01:52:17.754Z,24.5
2017-08-31T01:52:27.775Z,24.44
2017-08-31T01:52:37.773Z,24.47
2017-08-31T01:52:47.805Z,24.47
2017-08-31T01:52:57.824Z,24.5
2017-08-31T01:53:07.816Z,24.41
2017-08-31T01:53:17.850Z,24.44
2017-08-31T01:53:27.845Z,24.47
2017-08-31T01:53:37.854Z,24.45
2017-08-31T01:53:47.874Z,24.48
2017-08-31T01:53:57.905Z,24.41
2017-08-31T01:54:07.948Z,24.44
2017-08-31T01:54:17.914Z,24.35
2017-08-31T01:54:27.935Z,24.42
2017-08-31T01:54:37.954Z,24.45
2017-08-31T01:54:47.954Z,24.41
2017-08-31T01:54:57.974Z,24.42
2017-08-31T01:55:07.994Z,24.4
2017-08-31T01:55:17.985Z,24.45
2017-08-31T01:55:28.015Z,24.3
2017-08-31T01:55:38.036Z,24.32
2017-08-31T01:55:48.065Z,24.32
2017-08-31T01:55:58.055Z,24.4
2017-08-31T01:56:08.086Z,24.41
2017-08-31T01:56:18.088Z,24.4
2017-08-31T01:56:28.105Z,24.44
2017-08-31T01:56:38.115Z,24.47
2017-08-31T01:56:48.145Z,24.4
2017-08-31T01:56:58.154Z,24.44
2017-08-31T01:57:08.162Z,24.45
2017-08-31T01:57:18.186Z,24.47
2017-08-31T01:57:28.206Z,24.45
2017-08-31T01:57:38.205Z,24.45
2017-08-31T01:57:48.215Z,24.32
2017-08-31T01:57:58.238Z,24.45
2017-08-31T01:58:08.235Z,24.4
2017-08-31T01:58:18.268Z,24.32
2017-08-31T01:58:28.291Z,24.42
2017-08-31T01:58:38.285Z,24.37
2017-08-31T01:58:48.288Z,24.4
2017-08-31T01:58:58.336Z,24.38
2017-08-31T01:59:08.346Z,24.44
2017-08-31T01:59:18.348Z,24.4
2017-08-31T01:59:28.355Z,24.37
2017-08-31T01:59:38.377Z,24.47
2017-08-31T01:59:48.376Z,24.44
2017-08-31T01:59:58.404Z,24.42
2017-08-31T02:00:08.432Z,24.4
2017-08-31T02:00:18.447Z,24.4
2017-08-31T02:00:28.425Z,24.42
2017-08-31T02:00:38.456Z,24.37
2017-08-31T02:00:48.475Z,24.4
2017-08-31T02:00:58.485Z,24.42
2017-08-31T02:01:08.523Z,24.34
2017-08-31T02:01:18.515Z,24.35
2017-08-31T02:01:28.516Z,24.37
2017-08-31T02:01:38.541Z,24.4
2017-08-31T02:01:48.560Z,24.4
2017-08-31T02:01:58.555Z,24.42
2017-08-31T02:02:08.575Z,24.4
2017-08-31T02:02:18.613Z,24.42
2017-08-31T02:02:28.618Z,24.37
2017-08-31T02:02:38.606Z,24.45
2017-08-31T02:02:48.645Z,24.44
2017-08-31T02:02:58.655Z,24.47
2017-08-31T02:03:08.659Z,24.45
2017-08-31T02:03:18.689Z,24.44
2017-08-31T02:03:28.732Z,24.47
2017-08-31T02:03:38.725Z,24.41
2017-08-31T02:03:48.716Z,24.3
2017-08-31T02:03:58.741Z,24.37
2017-08-31T02:04:08.773Z,24.4
2017-08-31T02:04:18.746Z,24.4
2017-08-31T02:04:28.776Z,24.44
2017-08-31T02:04:38.828Z,24.4
2017-08-31T02:04:48.785Z,24.42
2017-08-31T02:04:58.816Z,24.4
2017-08-31T02:05:08.916Z,24.41
2017-08-31T02:05:18.865Z,24.4
2017-08-31T02:05:28.905Z,24.38
2017-08-31T02:05:38.894Z,24.41
2017-08-31T02:05:48.906Z,24.42
2017-08-31T02:05:58.915Z,24.4
2017-08-31T02:06:08.925Z,24.4
2017-08-31T02:06:18.945Z,24.45
2017-08-31T02:06:28.965Z,24.4
2017-08-31T02:06:38.985Z,24.42
2017-08-31T02:06:48.985Z,24.4
2017-08-31T02:06:58.995Z,24.4
2017-08-31T02:07:09.025Z,24.45
2017-08-31T02:07:19.025Z,24.41
2017-08-31T02:07:29.038Z,24.44
2017-08-31T02:07:39.055Z,24.44
2017-08-31T02:07:49.045Z,24.4
2017-08-31T02:07:59.076Z,24.45
2017-08-31T02:08:09.115Z,24.45
2017-08-31T02:08:19.124Z,24.42
2017-08-31T02:08:29.105Z,24.47
2017-08-31T02:08:39.135Z,24.32
2017-08-31T02:08:49.162Z,24.45
2017-08-31T02:08:59.165Z,24.42
2017-08-31T02:09:09.186Z,24.4
2017-08-31T02:09:19.185Z,24.4
2017-08-31T02:09:29.205Z,24.45
2017-08-31T02:09:39.215Z,24.42